sensor_id;sensor_type;location;lat;lon;timestamp;P1;durP1;ratioP1;P2;durP2;ratioP2
75608;SDS011;64194;51.044;13.780;2022-11-15T00:04:13;46.25;;;23.80;;
75608;SDS011;64194;51.044;13.780;2022-11-15T00:08:33;42.47;;;22.65;;
75608;SDS011;64194;51.044;13.780;2022-11-15T00:12:53;53.25;;;25.35;;
75608;SDS011;64194;51.044;13.780;2022-11-15T00:17:13;52.70;;;26.55;;
75608;SDS011;64194;51.044;13.780;2022-11-15T00:21:33;51.33;;;26.02;;
75608;SDS011;64194;51.044;13.780;2022-11-15T00:25:55;48.33;;;26.13;;
75608;SDS011;64194;51.044;13.780;2022-11-15T00:30:16;50.97;;;26.13;;
75608;SDS011;64194;51.044;13.780;2022-11-15T00:34:36;47.67;;;24.10;;
75608;SDS011;64194;51.044;13.780;2022-11-15T00:38:56;50.05;;;25.10;;
75608;SDS011;64194;51.044;13.780;2022-11-15T00:43:16;51.55;;;24.75;;
75608;SDS011;64194;51.044;13.780;2022-11-15T00:47:36;55.08;;;25.95;;
75608;SDS011;64194;51.044;13.780;2022-11-15T00:51:57;52.85;;;25.65;;
75608;SDS011;64194;51.044;13.780;2022-11-15T00:56:16;48.63;;;24.65;;
75608;SDS011;64194;51.044;13.780;2022-11-15T01:00:37;50.80;;;26.27;;
75608;SDS011;64194;51.044;13.780;2022-11-15T01:04:57;51.78;;;24.80;;
75608;SDS011;64194;51.044;13.780;2022-11-15T01:09:17;58.42;;;27.83;;
75608;SDS011;64194;51.044;13.780;2022-11-15T01:13:38;50.53;;;24.45;;
75608;SDS011;64194;51.044;13.780;2022-11-15T01:17:59;57.58;;;26.65;;
75608;SDS011;64194;51.044;13.780;2022-11-15T01:22:19;53.65;;;25.88;;
75608;SDS011;64194;51.044;13.780;2022-11-15T01:26:39;52.60;;;26.65;;
75608;SDS011;64194;51.044;13.780;2022-11-15T01:31:00;52.47;;;27.15;;
75608;SDS011;64194;51.044;13.780;2022-11-15T01:35:21;54.70;;;25.95;;
75608;SDS011;64194;51.044;13.780;2022-11-15T01:39:41;53.97;;;25.98;;
75608;SDS011;64194;51.044;13.780;2022-11-15T01:48:53;56.83;;;26.33;;
75608;SDS011;64194;51.044;13.780;2022-11-15T01:53:16;51.20;;;24.80;;
75608;SDS011;64194;51.044;13.780;2022-11-15T01:57:39;53.47;;;26.52;;
75608;SDS011;64194;51.044;13.780;2022-11-15T02:02:03;54.25;;;25.33;;
75608;SDS011;64194;51.044;13.780;2022-11-15T02:06:23;56.05;;;27.00;;
75608;SDS011;64194;51.044;13.780;2022-11-15T02:10:43;50.38;;;23.58;;
75608;SDS011;64194;51.044;13.780;2022-11-15T02:15:04;55.78;;;25.80;;
75608;SDS011;64194;51.044;13.780;2022-11-15T02:23:59;58.50;;;27.55;;
75608;SDS011;64194;51.044;13.780;2022-11-15T02:28:47;51.03;;;24.90;;
75608;SDS011;64194;51.044;13.780;2022-11-15T02:33:33;51.33;;;24.30;;
75608;SDS011;64194;51.044;13.780;2022-11-15T02:38:00;52.38;;;24.00;;
75608;SDS011;64194;51.044;13.780;2022-11-15T02:42:29;48.22;;;24.23;;
75608;SDS011;64194;51.044;13.780;2022-11-15T02:47:15;51.80;;;25.33;;
75608;SDS011;64194;51.044;13.780;2022-11-15T02:51:37;49.88;;;23.92;;
75608;SDS011;64194;51.044;13.780;2022-11-15T02:55:59;55.08;;;23.30;;
75608;SDS011;64194;51.044;13.780;2022-11-15T03:00:20;53.17;;;24.50;;
75608;SDS011;64194;51.044;13.780;2022-11-15T03:09:34;50.92;;;24.45;;
75608;SDS011;64194;51.044;13.780;2022-11-15T03:14:47;45.88;;;22.80;;
75608;SDS011;64194;51.044;13.780;2022-11-15T03:19:13;48.97;;;23.10;;
75608;SDS011;64194;51.044;13.780;2022-11-15T03:23:40;52.53;;;23.63;;
75608;SDS011;64194;51.044;13.780;2022-11-15T03:28:01;45.92;;;21.73;;
75608;SDS011;64194;51.044;13.780;2022-11-15T03:32:26;50.97;;;23.70;;
75608;SDS011;64194;51.044;13.780;2022-11-15T03:36:50;50.90;;;23.05;;
75608;SDS011;64194;51.044;13.780;2022-11-15T03:41:24;44.83;;;22.38;;
75608;SDS011;64194;51.044;13.780;2022-11-15T03:45:51;49.30;;;21.63;;
75608;SDS011;64194;51.044;13.780;2022-11-15T03:50:19;47.38;;;22.40;;
75608;SDS011;64194;51.044;13.780;2022-11-15T03:54:55;46.50;;;21.92;;
75608;SDS011;64194;51.044;13.780;2022-11-15T03:59:16;43.90;;;22.00;;
75608;SDS011;64194;51.044;13.780;2022-11-15T04:03:36;53.58;;;23.02;;
75608;SDS011;64194;51.044;13.780;2022-11-15T04:07:56;44.83;;;22.08;;
75608;SDS011;64194;51.044;13.780;2022-11-15T04:12:16;45.85;;;21.48;;
75608;SDS011;64194;51.044;13.780;2022-11-15T04:16:50;41.60;;;21.80;;
75608;SDS011;64194;51.044;13.780;2022-11-15T04:21:10;44.85;;;20.95;;
75608;SDS011;64194;51.044;13.780;2022-11-15T04:25:49;42.90;;;19.83;;
75608;SDS011;64194;51.044;13.780;2022-11-15T04:30:12;50.42;;;23.85;;
75608;SDS011;64194;51.044;13.780;2022-11-15T04:34:32;43.17;;;21.25;;
75608;SDS011;64194;51.044;13.780;2022-11-15T04:38:52;47.03;;;21.98;;
75608;SDS011;64194;51.044;13.780;2022-11-15T04:43:12;47.53;;;21.17;;
75608;SDS011;64194;51.044;13.780;2022-11-15T04:47:32;44.17;;;22.20;;
75608;SDS011;64194;51.044;13.780;2022-11-15T04:51:52;40.38;;;19.80;;
75608;SDS011;64194;51.044;13.780;2022-11-15T04:56:13;41.42;;;20.23;;
75608;SDS011;64194;51.044;13.780;2022-11-15T05:00:33;45.22;;;22.25;;
75608;SDS011;64194;51.044;13.780;2022-11-15T05:04:53;41.70;;;20.23;;
75608;SDS011;64194;51.044;13.780;2022-11-15T05:09:13;45.03;;;20.50;;
75608;SDS011;64194;51.044;13.780;2022-11-15T05:13:33;44.00;;;21.55;;
75608;SDS011;64194;51.044;13.780;2022-11-15T05:17:59;43.25;;;21.67;;
75608;SDS011;64194;51.044;13.780;2022-11-15T05:22:20;43.22;;;20.77;;
75608;SDS011;64194;51.044;13.780;2022-11-15T05:26:40;46.25;;;21.85;;
75608;SDS011;64194;51.044;13.780;2022-11-15T05:31:01;43.97;;;20.33;;
75608;SDS011;64194;51.044;13.780;2022-11-15T05:35:29;48.40;;;22.38;;
75608;SDS011;64194;51.044;13.780;2022-11-15T05:39:53;41.33;;;21.00;;
75608;SDS011;64194;51.044;13.780;2022-11-15T05:44:14;48.45;;;22.52;;
75608;SDS011;64194;51.044;13.780;2022-11-15T05:48:39;48.50;;;20.63;;
75608;SDS011;64194;51.044;13.780;2022-11-15T05:53:02;42.78;;;20.45;;
75608;SDS011;64194;51.044;13.780;2022-11-15T05:57:24;45.72;;;21.33;;
75608;SDS011;64194;51.044;13.780;2022-11-15T06:01:45;44.95;;;20.98;;
75608;SDS011;64194;51.044;13.780;2022-11-15T06:06:05;43.10;;;20.95;;
75608;SDS011;64194;51.044;13.780;2022-11-15T06:10:29;46.42;;;20.73;;
75608;SDS011;64194;51.044;13.780;2022-11-15T06:14:49;52.28;;;23.23;;
75608;SDS011;64194;51.044;13.780;2022-11-15T06:19:09;43.47;;;20.23;;
75608;SDS011;64194;51.044;13.780;2022-11-15T06:23:31;48.30;;;21.92;;
75608;SDS011;64194;51.044;13.780;2022-11-15T06:27:53;45.00;;;21.67;;
75608;SDS011;64194;51.044;13.780;2022-11-15T06:32:14;45.17;;;20.60;;
75608;SDS011;64194;51.044;13.780;2022-11-15T06:36:35;45.30;;;20.73;;
75608;SDS011;64194;51.044;13.780;2022-11-15T06:41:00;45.47;;;21.58;;
75608;SDS011;64194;51.044;13.780;2022-11-15T06:45:22;40.85;;;19.60;;
75608;SDS011;64194;51.044;13.780;2022-11-15T06:49:42;39.40;;;19.05;;
75608;SDS011;64194;51.044;13.780;2022-11-15T06:54:04;37.90;;;17.83;;
75608;SDS011;64194;51.044;13.780;2022-11-15T06:58:25;38.15;;;18.40;;
75608;SDS011;64194;51.044;13.780;2022-11-15T07:02:47;37.85;;;18.67;;
75608;SDS011;64194;51.044;13.780;2022-11-15T07:07:08;40.13;;;18.17;;
75608;SDS011;64194;51.044;13.780;2022-11-15T07:11:29;40.58;;;18.60;;
75608;SDS011;64194;51.044;13.780;2022-11-15T07:15:49;36.85;;;19.27;;
75608;SDS011;64194;51.044;13.780;2022-11-15T07:20:10;41.45;;;17.75;;
75608;SDS011;64194;51.044;13.780;2022-11-15T07:24:32;35.90;;;18.17;;
75608;SDS011;64194;51.044;13.780;2022-11-15T07:28:53;40.92;;;19.63;;
75608;SDS011;64194;51.044;13.780;2022-11-15T07:33:13;33.85;;;16.83;;
75608;SDS011;64194;51.044;13.780;2022-11-15T07:37:33;36.25;;;17.27;;
75608;SDS011;64194;51.044;13.780;2022-11-15T07:41:53;35.00;;;17.98;;
75608;SDS011;64194;51.044;13.780;2022-11-15T07:46:33;34.72;;;16.48;;
75608;SDS011;64194;51.044;13.780;2022-11-15T07:50:54;33.85;;;16.50;;
75608;SDS011;64194;51.044;13.780;2022-11-15T07:55:14;31.13;;;17.08;;
75608;SDS011;64194;51.044;13.780;2022-11-15T07:59:34;32.28;;;16.58;;
75608;SDS011;64194;51.044;13.780;2022-11-15T08:03:55;31.40;;;16.92;;
75608;SDS011;64194;51.044;13.780;2022-11-15T08:08:15;30.55;;;16.00;;
75608;SDS011;64194;51.044;13.780;2022-11-15T08:12:36;28.63;;;16.05;;
75608;SDS011;64194;51.044;13.780;2022-11-15T08:16:56;29.73;;;15.35;;
75608;SDS011;64194;51.044;13.780;2022-11-15T08:21:18;27.30;;;14.95;;
75608;SDS011;64194;51.044;13.780;2022-11-15T08:25:39;26.67;;;15.02;;
75608;SDS011;64194;51.044;13.780;2022-11-15T08:36:01;27.73;;;15.85;;
75608;SDS011;64194;51.044;13.780;2022-11-15T08:40:21;26.25;;;16.00;;
75608;SDS011;64194;51.044;13.780;2022-11-15T08:44:42;24.80;;;14.60;;
75608;SDS011;64194;51.044;13.780;2022-11-15T08:49:03;22.67;;;14.82;;
75608;SDS011;64194;51.044;13.780;2022-11-15T08:53:23;23.00;;;14.05;;
75608;SDS011;64194;51.044;13.780;2022-11-15T08:57:45;24.42;;;15.65;;
75608;SDS011;64194;51.044;13.780;2022-11-15T09:02:11;23.90;;;14.68;;
75608;SDS011;64194;51.044;13.780;2022-11-15T09:06:41;25.60;;;14.63;;
75608;SDS011;64194;51.044;13.780;2022-11-15T09:11:03;24.67;;;15.60;;
75608;SDS011;64194;51.044;13.780;2022-11-15T09:15:24;25.90;;;15.35;;
75608;SDS011;64194;51.044;13.780;2022-11-15T09:19:48;24.75;;;14.85;;
75608;SDS011;64194;51.044;13.780;2022-11-15T09:30:14;24.60;;;15.73;;
75608;SDS011;64194;51.044;13.780;2022-11-15T09:34:35;23.27;;;14.77;;
75608;SDS011;64194;51.044;13.780;2022-11-15T09:39:10;23.00;;;15.18;;
75608;SDS011;64194;51.044;13.780;2022-11-15T09:48:19;21.55;;;15.43;;
75608;SDS011;64194;51.044;13.780;2022-11-15T09:58:00;19.63;;;13.85;;
75608;SDS011;64194;51.044;13.780;2022-11-15T10:06:42;20.73;;;15.02;;
75608;SDS011;64194;51.044;13.780;2022-11-15T10:11:03;19.88;;;13.73;;
75608;SDS011;64194;51.044;13.780;2022-11-15T10:15:32;17.17;;;12.65;;
75608;SDS011;64194;51.044;13.780;2022-11-15T10:24:22;21.65;;;14.90;;
75608;SDS011;64194;51.044;13.780;2022-11-15T10:28:36;18.60;;;13.25;;
75608;SDS011;64194;51.044;13.780;2022-11-15T10:37:28;18.52;;;13.85;;
75608;SDS011;64194;51.044;13.780;2022-11-15T10:41:35;18.52;;;13.65;;
75608;SDS011;64194;51.044;13.780;2022-11-15T10:45:39;20.55;;;14.85;;
75608;SDS011;64194;51.044;13.780;2022-11-15T10:49:52;19.70;;;14.88;;
75608;SDS011;64194;51.044;13.780;2022-11-15T10:54:05;17.02;;;12.30;;
75608;SDS011;64194;51.044;13.780;2022-11-15T11:06:59;18.60;;;14.85;;
75608;SDS011;64194;51.044;13.780;2022-11-15T11:11:02;18.70;;;13.52;;
75608;SDS011;64194;51.044;13.780;2022-11-15T11:15:11;18.08;;;14.43;;
75608;SDS011;64194;51.044;13.780;2022-11-15T11:23:45;16.00;;;12.60;;
75608;SDS011;64194;51.044;13.780;2022-11-15T11:28:13;17.10;;;13.00;;
75608;SDS011;64194;51.044;13.780;2022-11-15T11:50:18;18.38;;;14.00;;
75608;SDS011;64194;51.044;13.780;2022-11-15T11:54:29;16.35;;;13.32;;
75608;SDS011;64194;51.044;13.780;2022-11-15T12:02:55;18.38;;;13.75;;
75608;SDS011;64194;51.044;13.780;2022-11-15T12:16:07;19.85;;;13.07;;
75608;SDS011;64194;51.044;13.780;2022-11-15T12:24:24;17.52;;;12.93;;
75608;SDS011;64194;51.044;13.780;2022-11-15T12:37:47;17.60;;;12.52;;
75608;SDS011;64194;51.044;13.780;2022-11-15T12:46:01;17.10;;;12.80;;
75608;SDS011;64194;51.044;13.780;2022-11-15T12:50:10;18.23;;;14.10;;
75608;SDS011;64194;51.044;13.780;2022-11-15T12:58:28;16.58;;;11.82;;
75608;SDS011;64194;51.044;13.780;2022-11-15T13:02:43;17.88;;;13.45;;
75608;SDS011;64194;51.044;13.780;2022-11-15T13:06:47;18.55;;;13.15;;
75608;SDS011;64194;51.044;13.780;2022-11-15T13:10:49;17.08;;;12.80;;
75608;SDS011;64194;51.044;13.780;2022-11-15T13:14:56;19.65;;;12.45;;
75608;SDS011;64194;51.044;13.780;2022-11-15T13:19:15;18.02;;;13.23;;
75608;SDS011;64194;51.044;13.780;2022-11-15T13:23:16;18.58;;;13.65;;
75608;SDS011;64194;51.044;13.780;2022-11-15T13:27:18;20.58;;;14.60;;
75608;SDS011;64194;51.044;13.780;2022-11-15T13:35:30;18.65;;;13.35;;
75608;SDS011;64194;51.044;13.780;2022-11-15T13:39:34;20.20;;;13.07;;
75608;SDS011;64194;51.044;13.780;2022-11-15T13:43:38;19.00;;;13.10;;
75608;SDS011;64194;51.044;13.780;2022-11-15T13:47:40;17.80;;;12.13;;
75608;SDS011;64194;51.044;13.780;2022-11-15T13:51:49;21.60;;;13.55;;
75608;SDS011;64194;51.044;13.780;2022-11-15T13:55:55;19.67;;;12.52;;
75608;SDS011;64194;51.044;13.780;2022-11-15T14:00:01;18.85;;;11.20;;
75608;SDS011;64194;51.044;13.780;2022-11-15T14:04:13;22.35;;;13.18;;
75608;SDS011;64194;51.044;13.780;2022-11-15T14:20:38;22.90;;;12.25;;
75608;SDS011;64194;51.044;13.780;2022-11-15T14:24:41;19.58;;;11.85;;
75608;SDS011;64194;51.044;13.780;2022-11-15T14:28:47;23.38;;;12.27;;
75608;SDS011;64194;51.044;13.780;2022-11-15T14:32:50;22.45;;;12.63;;
75608;SDS011;64194;51.044;13.780;2022-11-15T14:36:52;22.25;;;12.13;;
75608;SDS011;64194;51.044;13.780;2022-11-15T14:40:54;22.10;;;12.70;;
75608;SDS011;64194;51.044;13.780;2022-11-15T14:44:59;22.98;;;12.80;;
75608;SDS011;64194;51.044;13.780;2022-11-15T14:49:01;22.63;;;13.10;;
75608;SDS011;64194;51.044;13.780;2022-11-15T14:53:03;25.77;;;12.65;;
75608;SDS011;64194;51.044;13.780;2022-11-15T14:57:05;22.67;;;12.40;;
75608;SDS011;64194;51.044;13.780;2022-11-15T15:01:17;25.40;;;12.82;;
75608;SDS011;64194;51.044;13.780;2022-11-15T15:05:29;24.10;;;12.38;;
75608;SDS011;64194;51.044;13.780;2022-11-15T15:09:33;24.33;;;12.40;;
75608;SDS011;64194;51.044;13.780;2022-11-15T15:13:35;25.48;;;12.88;;
75608;SDS011;64194;51.044;13.780;2022-11-15T15:17:36;26.48;;;13.52;;
75608;SDS011;64194;51.044;13.780;2022-11-15T15:21:38;26.48;;;13.02;;
75608;SDS011;64194;51.044;13.780;2022-11-15T15:25:40;26.05;;;12.70;;
75608;SDS011;64194;51.044;13.780;2022-11-15T15:29:43;27.52;;;13.85;;
75608;SDS011;64194;51.044;13.780;2022-11-15T15:33:44;28.15;;;14.65;;
75608;SDS011;64194;51.044;13.780;2022-11-15T15:37:46;26.50;;;13.52;;
75608;SDS011;64194;51.044;13.780;2022-11-15T15:41:49;26.02;;;13.95;;
75608;SDS011;64194;51.044;13.780;2022-11-15T15:46:00;23.30;;;12.65;;
75608;SDS011;64194;51.044;13.780;2022-11-15T15:50:02;29.10;;;14.57;;
75608;SDS011;64194;51.044;13.780;2022-11-15T15:54:04;34.25;;;16.30;;
75608;SDS011;64194;51.044;13.780;2022-11-15T15:58:06;27.20;;;13.73;;
75608;SDS011;64194;51.044;13.780;2022-11-15T16:02:11;26.35;;;13.35;;
75608;SDS011;64194;51.044;13.780;2022-11-15T16:06:32;26.70;;;13.95;;
75608;SDS011;64194;51.044;13.780;2022-11-15T16:10:36;27.48;;;13.50;;
75608;SDS011;64194;51.044;13.780;2022-11-15T16:14:38;27.48;;;14.07;;
75608;SDS011;64194;51.044;13.780;2022-11-15T16:18:40;30.23;;;14.90;;
75608;SDS011;64194;51.044;13.780;2022-11-15T16:22:41;29.23;;;13.68;;
75608;SDS011;64194;51.044;13.780;2022-11-15T16:26:43;28.13;;;14.02;;
75608;SDS011;64194;51.044;13.780;2022-11-15T16:30:46;25.17;;;13.35;;
75608;SDS011;64194;51.044;13.780;2022-11-15T16:39:21;29.60;;;13.88;;
75608;SDS011;64194;51.044;13.780;2022-11-15T16:48:52;31.63;;;16.27;;
75608;SDS011;64194;51.044;13.780;2022-11-15T16:52:55;29.00;;;13.77;;
75608;SDS011;64194;51.044;13.780;2022-11-15T16:56:59;26.08;;;13.35;;
75608;SDS011;64194;51.044;13.780;2022-11-15T17:01:00;31.33;;;14.23;;
75608;SDS011;64194;51.044;13.780;2022-11-15T17:05:02;30.45;;;13.90;;
75608;SDS011;64194;51.044;13.780;2022-11-15T17:09:15;27.30;;;13.55;;
75608;SDS011;64194;51.044;13.780;2022-11-15T17:13:19;27.52;;;13.45;;
75608;SDS011;64194;51.044;13.780;2022-11-15T17:17:20;27.05;;;13.40;;
75608;SDS011;64194;51.044;13.780;2022-11-15T17:21:22;29.55;;;14.20;;
75608;SDS011;64194;51.044;13.780;2022-11-15T17:25:23;31.85;;;15.13;;
75608;SDS011;64194;51.044;13.780;2022-11-15T17:29:25;31.58;;;13.45;;
75608;SDS011;64194;51.044;13.780;2022-11-15T17:33:27;29.45;;;14.45;;
75608;SDS011;64194;51.044;13.780;2022-11-15T17:37:28;30.48;;;14.75;;
75608;SDS011;64194;51.044;13.780;2022-11-15T17:41:30;26.88;;;13.18;;
75608;SDS011;64194;51.044;13.780;2022-11-15T17:45:32;30.73;;;13.75;;
75608;SDS011;64194;51.044;13.780;2022-11-15T17:49:33;27.58;;;13.45;;
75608;SDS011;64194;51.044;13.780;2022-11-15T17:53:40;32.25;;;15.48;;
75608;SDS011;64194;51.044;13.780;2022-11-15T17:57:43;31.95;;;15.57;;
75608;SDS011;64194;51.044;13.780;2022-11-15T18:01:45;27.20;;;13.77;;
75608;SDS011;64194;51.044;13.780;2022-11-15T18:05:46;33.83;;;15.32;;
75608;SDS011;64194;51.044;13.780;2022-11-15T18:09:48;30.48;;;14.75;;
75608;SDS011;64194;51.044;13.780;2022-11-15T18:13:51;29.25;;;14.20;;
75608;SDS011;64194;51.044;13.780;2022-11-15T18:17:54;29.13;;;13.30;;
75608;SDS011;64194;51.044;13.780;2022-11-15T18:22:01;30.50;;;14.15;;
75608;SDS011;64194;51.044;13.780;2022-11-15T18:26:05;30.58;;;13.75;;
75608;SDS011;64194;51.044;13.780;2022-11-15T18:30:08;27.13;;;12.13;;
75608;SDS011;64194;51.044;13.780;2022-11-15T18:34:10;26.20;;;12.70;;
75608;SDS011;64194;51.044;13.780;2022-11-15T18:38:11;27.48;;;14.27;;
75608;SDS011;64194;51.044;13.780;2022-11-15T18:42:13;28.50;;;13.30;;
75608;SDS011;64194;51.044;13.780;2022-11-15T18:46:15;29.58;;;13.70;;
75608;SDS011;64194;51.044;13.780;2022-11-15T18:50:19;32.28;;;13.48;;
75608;SDS011;64194;51.044;13.780;2022-11-15T18:54:20;26.33;;;12.68;;
75608;SDS011;64194;51.044;13.780;2022-11-15T18:58:30;28.48;;;12.80;;
75608;SDS011;64194;51.044;13.780;2022-11-15T19:02:34;26.58;;;12.90;;
75608;SDS011;64194;51.044;13.780;2022-11-15T19:06:37;23.98;;;11.35;;
75608;SDS011;64194;51.044;13.780;2022-11-15T19:10:42;27.27;;;11.63;;
75608;SDS011;64194;51.044;13.780;2022-11-15T19:14:44;27.65;;;12.52;;
75608;SDS011;64194;51.044;13.780;2022-11-15T19:18:45;26.52;;;12.02;;
75608;SDS011;64194;51.044;13.780;2022-11-15T19:22:47;26.90;;;13.13;;
75608;SDS011;64194;51.044;13.780;2022-11-15T19:26:49;26.48;;;12.25;;
75608;SDS011;64194;51.044;13.780;2022-11-15T19:30:50;26.17;;;11.80;;
75608;SDS011;64194;51.044;13.780;2022-11-15T19:34:52;24.83;;;11.68;;
75608;SDS011;64194;51.044;13.780;2022-11-15T19:38:54;21.95;;;11.55;;
75608;SDS011;64194;51.044;13.780;2022-11-15T19:42:56;24.10;;;11.80;;
75608;SDS011;64194;51.044;13.780;2022-11-15T19:46:58;21.35;;;10.82;;
75608;SDS011;64194;51.044;13.780;2022-11-15T19:51:00;22.77;;;11.43;;
75608;SDS011;64194;51.044;13.780;2022-11-15T19:55:03;24.17;;;10.40;;
75608;SDS011;64194;51.044;13.780;2022-11-15T19:59:05;19.17;;;9.55;;
75608;SDS011;64194;51.044;13.780;2022-11-15T20:03:07;23.27;;;10.57;;
75608;SDS011;64194;51.044;13.780;2022-11-15T20:07:09;23.27;;;9.98;;
75608;SDS011;64194;51.044;13.780;2022-11-15T20:11:11;21.23;;;10.50;;
75608;SDS011;64194;51.044;13.780;2022-11-15T20:15:13;22.17;;;10.68;;
75608;SDS011;64194;51.044;13.780;2022-11-15T20:19:15;21.63;;;10.38;;
75608;SDS011;64194;51.044;13.780;2022-11-15T20:23:17;20.42;;;10.27;;
75608;SDS011;64194;51.044;13.780;2022-11-15T20:27:19;21.52;;;10.18;;
75608;SDS011;64194;51.044;13.780;2022-11-15T20:31:20;21.58;;;10.85;;
75608;SDS011;64194;51.044;13.780;2022-11-15T20:35:22;22.42;;;10.07;;
75608;SDS011;64194;51.044;13.780;2022-11-15T20:39:24;19.55;;;10.35;;
75608;SDS011;64194;51.044;13.780;2022-11-15T20:43:25;22.55;;;10.73;;
75608;SDS011;64194;51.044;13.780;2022-11-15T20:47:28;21.27;;;10.43;;
75608;SDS011;64194;51.044;13.780;2022-11-15T20:51:31;21.38;;;9.43;;
75608;SDS011;64194;51.044;13.780;2022-11-15T20:55:37;24.23;;;11.73;;
75608;SDS011;64194;51.044;13.780;2022-11-15T20:59:41;20.98;;;10.25;;
75608;SDS011;64194;51.044;13.780;2022-11-15T21:03:42;19.90;;;9.75;;
75608;SDS011;64194;51.044;13.780;2022-11-15T21:07:44;20.50;;;9.95;;
75608;SDS011;64194;51.044;13.780;2022-11-15T21:11:46;18.80;;;9.60;;
75608;SDS011;64194;51.044;13.780;2022-11-15T21:16:06;21.23;;;9.60;;
75608;SDS011;64194;51.044;13.780;2022-11-15T21:20:08;21.58;;;9.57;;
75608;SDS011;64194;51.044;13.780;2022-11-15T21:24:11;17.38;;;9.48;;
75608;SDS011;64194;51.044;13.780;2022-11-15T21:28:13;17.83;;;8.73;;
75608;SDS011;64194;51.044;13.780;2022-11-15T21:32:14;18.48;;;9.18;;
75608;SDS011;64194;51.044;13.780;2022-11-15T21:36:16;17.70;;;8.95;;
75608;SDS011;64194;51.044;13.780;2022-11-15T21:40:18;18.55;;;9.75;;
75608;SDS011;64194;51.044;13.780;2022-11-15T21:44:22;16.48;;;8.13;;
75608;SDS011;64194;51.044;13.780;2022-11-15T21:48:25;16.75;;;8.15;;
75608;SDS011;64194;51.044;13.780;2022-11-15T21:52:27;18.63;;;8.95;;
75608;SDS011;64194;51.044;13.780;2022-11-15T21:56:29;19.10;;;8.88;;
75608;SDS011;64194;51.044;13.780;2022-11-15T22:00:31;16.35;;;8.73;;
75608;SDS011;64194;51.044;13.780;2022-11-15T22:04:51;16.90;;;8.18;;
75608;SDS011;64194;51.044;13.780;2022-11-15T22:08:52;19.80;;;9.15;;
75608;SDS011;64194;51.044;13.780;2022-11-15T22:12:54;16.40;;;7.50;;
75608;SDS011;64194;51.044;13.780;2022-11-15T22:16:55;17.48;;;9.35;;
75608;SDS011;64194;51.044;13.780;2022-11-15T22:20:58;16.92;;;8.48;;
75608;SDS011;64194;51.044;13.780;2022-11-15T22:25:07;18.92;;;9.32;;
75608;SDS011;64194;51.044;13.780;2022-11-15T22:29:09;15.43;;;7.78;;
75608;SDS011;64194;51.044;13.780;2022-11-15T22:33:10;16.88;;;7.80;;
75608;SDS011;64194;51.044;13.780;2022-11-15T22:37:12;16.25;;;8.23;;
75608;SDS011;64194;51.044;13.780;2022-11-15T22:41:21;15.52;;;7.82;;
75608;SDS011;64194;51.044;13.780;2022-11-15T22:45:23;16.70;;;8.60;;
75608;SDS011;64194;51.044;13.780;2022-11-15T22:49:24;16.70;;;8.32;;
75608;SDS011;64194;51.044;13.780;2022-11-15T22:53:26;14.07;;;7.05;;
75608;SDS011;64194;51.044;13.780;2022-11-15T22:57:27;15.73;;;8.00;;
75608;SDS011;64194;51.044;13.780;2022-11-15T23:01:29;14.98;;;7.95;;
75608;SDS011;64194;51.044;13.780;2022-11-15T23:05:30;16.55;;;7.75;;
75608;SDS011;64194;51.044;13.780;2022-11-15T23:09:35;13.77;;;7.65;;
75608;SDS011;64194;51.044;13.780;2022-11-15T23:13:37;14.48;;;7.60;;
75608;SDS011;64194;51.044;13.780;2022-11-15T23:17:38;13.23;;;6.65;;
75608;SDS011;64194;51.044;13.780;2022-11-15T23:21:41;13.73;;;6.47;;
75608;SDS011;64194;51.044;13.780;2022-11-15T23:26:03;16.60;;;7.97;;
75608;SDS011;64194;51.044;13.780;2022-11-15T23:30:06;13.07;;;6.45;;
75608;SDS011;64194;51.044;13.780;2022-11-15T23:34:26;13.77;;;6.93;;
75608;SDS011;64194;51.044;13.780;2022-11-15T23:38:28;16.20;;;7.10;;
75608;SDS011;64194;51.044;13.780;2022-11-15T23:42:33;15.00;;;7.00;;
75608;SDS011;64194;51.044;13.780;2022-11-15T23:46:34;13.40;;;6.68;;
75608;SDS011;64194;51.044;13.780;2022-11-15T23:50:36;16.08;;;7.45;;
75608;SDS011;64194;51.044;13.780;2022-11-15T23:54:38;15.00;;;7.43;;
75608;SDS011;64194;51.044;13.780;2022-11-15T23:58:40;15.18;;;6.60;;
